Georgi Petkov

Recruteur en chef - Levski
8 Nov 2026
Dimanche
Processus

Personnalité

Adaptabilité (1) Ambition (3) Controverse (5) Loyauté (8) Pression (12) Professionnalisme (18) Sportivité (5) Tempérament (19)

Profil

Style d'entraînement Démocratique
Diplôme Continental A
Détermination 8
Gestion des joueurs 4
Motivation 7
Discipline 7
Satisfaction professionnelle
50%
Fatigue
0%
Rôle Recruteur en chef
Salaire 67.5K p/s
Contrat 14.03.2029

Performance

Comportement Normal
Efficacité de l'entraînement
25%
Développement des joueurs
45%
Prévention des blessures
45%
Mise en place tactique
40%

Événements récents

A évalué un joueur maintenant
A évalué un joueur maintenant
A participé à une réunion de recrutement maintenant
A participé à une réunion de recrutement maintenant
A participé à une réunion de recrutement maintenant
A participé à une réunion de recrutement maintenant
A recommandé une cible de transfert maintenant
A évalué un joueur maintenant

Suivi en cours

62
Joueur Club Statut Capacité Confiance Observé Dernière observation Dernier vote
Leandro Godoy CSKA Sofia Actif 121 / 127 40% 1 07.11.2026 -
Miro Dinamo Makhachkala Actif 120 / 119 40% 1 07.11.2026 -
Rahim Ibrahim Slovan Bratislava Actif 129 / 125 40% 1 06.11.2026 -
Dardan Shabanhaxhaj Rubin Actif 108 / 113 40% 1 06.11.2026 -
Ronaldo Vásquez Sumgayit Actif 112 / 114 40% 2 02.11.2026 -
Aguibou Camara Ludogorets Actif 119 / 125 40% 1 02.11.2026 -
Ammar Ramadan DAC Dunajska Streda Actif 129 / 126 40% 1 02.11.2026 -
Konstantin Tyukavin Dinamo Moscow Actif 139 / 125 40% 1 02.11.2026 -
Ovidiu Iancu Astra Actif 130 / 123 40% 1 29.10.2026 -
Lautaro Guzmán Arsenal Actif 117 / 110 40% 1 29.10.2026 -
Adrián Niño Málaga Actif 121 / 126 40% 2 27.10.2026 -
Kein Sato FC Tokyo Actif 126 / 145 40% 1 27.10.2026 -
Marcelo Flores Tigres Actif 134 / 119 40% 2 26.10.2026 -
Dor Turgeman New England Revolution Actif 126 / 135 40% 2 26.10.2026 -
Helinho Toluca Actif 130 / 119 40% 1 24.10.2026 -
Miha Kampl NK Domzale Actif 117 / 115 40% 1 24.10.2026 -
Caio Vidal Ludogorets Actif 133 / 132 40% 2 23.10.2026 Plus d'infos
Marko Brest Olimpija Ljubljana Actif 113 / 111 40% 1 21.10.2026 -
Caolan Boyd-Munce Wycombe Wanderers Actif 108 / 119 40% 1 21.10.2026 -
Lautaro Ríos Banfield Actif 125 / 128 40% 1 20.10.2026 -
Jefferson Romero La Equidad Actif 120 / 117 40% 2 18.10.2026 -
Jonas Auer Rapid Wien Actif 131 / 123 40% 1 18.10.2026 -
Pastor CSKA Sofia Actif 119 / 116 40% 1 17.10.2026 Plus d'infos
José Paradela Cruz Azul Actif 148 / 134 40% 1 17.10.2026 -
Tyrick Mitchell Crystal Palace Actif 158 / 141 40% 2 16.10.2026 -
Burak Soyuncu Inter Actif 131 / 119 40% 2 16.10.2026 -
Andrea Ciofi Cesena Actif 126 / 127 40% 1 15.10.2026 -
Maks Ebong CSKA Sofia Actif 123 / 113 40% 2 14.10.2026 Plus d'infos
Léo Pereira CSKA Sofia Actif 121 / 111 40% 1 14.10.2026 -
Ryunosuke Sato Valencia Actif 126 / 139 40% 1 12.10.2026 -
Matías Pellegrini Vélez Actif 116 / 130 40% 1 12.10.2026 -
Oscar Fraulo Derby County Actif 136 / 125 40% 1 11.10.2026 -
James Eto'o CSKA Sofia Actif 116 / 129 40% 1 10.10.2026 -
Samuel Gidi FC Cincinnati Actif 108 / 112 40% 1 09.10.2026 -
Mateo Seoane Gimnasia La Plata Actif 130 / 135 40% 1 08.10.2026 -
Ibrahim Cissoko Zwolle Actif 103 / 114 40% 1 07.10.2026 -
Petar Stanić Ludogorets Actif 144 / 139 40% 1 07.10.2026 -
Tobías Ramírez River Plate Actif 119 / 141 40% 1 06.10.2026 -
Thiago Helguera Braga Actif 120 / 129 40% 1 06.10.2026 -
Honest Ahanor Atalanta Actif 141 / 131 40% 1 10.09.2026 -
Zach Mitchell Charlton Athletic Actif 86 / 92 40% 1 10.09.2026 -
Buba Sangaré Elche Actif 129 / 131 40% 1 02.09.2026 -
Simeon Vasilev Arda Actif 85 / 103 40% 1 02.09.2026 -
Demián Troya Platense Actif 114 / 109 40% 2 30.08.2026 -
Alejo Fernández Kayserispor Actif 103 / 101 40% 1 30.08.2026 -
Siyabonga Mabunda FCSB Actif 102 / 109 40% 2 29.08.2026 -
Berk Beyhan Cherno More Actif 97 / 111 40% 1 29.08.2026 -
Thiago Martínez Defensa y Justicia Actif 101 / 115 40% 1 28.08.2026 -
Lucas Richarte Temperley Actif 105 / 102 40% 2 27.08.2026 -
Teun Gijselhart Deportivo La Coruña Actif 107 / 102 40% 2 26.08.2026 -
Tyler Fletcher Manchester United Actif 100 / 115 40% 1 26.08.2026 -
Justin-Noël Kalumba Mallorca Actif 105 / 106 40% 1 25.08.2026 -
Daniel Herrera Cortulua Actif 98 / 123 40% 1 25.08.2026 -
Borislav Tsonev CSKA 1948 Actif 122 / 122 58% 1 24.08.2026 Approuver
Francisco Razzeto Sarmiento Actif 76 / 88 40% 1 18.08.2026 -
Francisco Arias Gimnasia y Esgrima Actif 84 / 95 40% 1 16.08.2026 -
Jack Fletcher Manchester United Actif 88 / 106 40% 2 13.08.2026 -
Santiago Colidio Colón Actif 89 / 97 40% 1 05.08.2026 -
Ignacio Gentile San Telmo Actif 85 / 91 40% 1 03.08.2026 -
Marcelo Camargo Vélez Actif 112 / 94 40% 1 03.08.2026 -
Lucas Agazzi Defensor Sporting Actif 121 / 135 40% 1 02.08.2026 -
Agustin Colmegna Boca Juniors Actif 98 / 101 40% 1 02.08.2026 -